createdAt,value
2018-05-03T00:00:56.693Z,0.00
2018-05-03T00:01:56.783Z,0.00
2018-05-03T00:02:56.708Z,0.00
2018-05-03T00:03:56.761Z,0.00
2018-05-03T00:04:56.739Z,0.00
2018-05-03T00:05:56.733Z,0.00
2018-05-03T00:06:56.793Z,0.00
2018-05-03T00:07:56.766Z,0.00
2018-05-03T00:08:56.767Z,0.00
2018-05-03T00:09:56.796Z,0.00
2018-05-03T00:10:56.851Z,0.00
2018-05-03T00:11:56.803Z,0.00
2018-05-03T00:12:56.817Z,0.00
2018-05-03T00:13:56.830Z,0.00
2018-05-03T00:14:56.838Z,0.00
2018-05-03T00:15:56.851Z,0.00
2018-05-03T00:16:56.892Z,0.00
2018-05-03T00:17:56.865Z,0.00
2018-05-03T00:18:56.892Z,0.00
2018-05-03T00:19:56.885Z,0.00
2018-05-03T00:20:56.894Z,0.00
2018-05-03T00:21:56.940Z,0.00
2018-05-03T00:22:56.922Z,0.00
2018-05-03T00:23:56.962Z,0.00
2018-05-03T00:24:56.980Z,0.00
2018-05-03T00:25:56.952Z,0.00
2018-05-03T00:26:56.964Z,0.00
2018-05-03T00:27:56.974Z,0.00
2018-05-03T00:28:56.988Z,0.00
2018-05-03T00:29:57.057Z,0.00
2018-05-03T00:30:57.009Z,0.00
2018-05-03T00:31:57.021Z,0.00
2018-05-03T00:32:57.028Z,0.00
2018-05-03T00:33:57.035Z,0.00
2018-05-03T00:34:57.084Z,0.00
2018-05-03T00:35:57.072Z,0.00
2018-05-03T00:36:57.131Z,0.00
2018-05-03T00:37:57.079Z,0.00
2018-05-03T00:38:57.088Z,0.00
2018-05-03T00:39:57.103Z,0.00
2018-05-03T00:40:57.129Z,0.00
2018-05-03T00:41:57.125Z,0.00
2018-05-03T00:42:57.187Z,0.00
2018-05-03T00:43:57.144Z,0.00
2018-05-03T00:44:57.155Z,0.00
2018-05-03T00:45:57.166Z,0.00
2018-05-03T00:46:57.176Z,0.00
2018-05-03T00:47:57.250Z,0.00
2018-05-03T00:48:57.314Z,0.00
2018-05-03T00:49:57.213Z,0.00
2018-05-03T00:50:57.224Z,0.00
2018-05-03T00:51:57.304Z,0.00
2018-05-03T00:52:57.242Z,0.00
2018-05-03T00:53:57.256Z,0.00
2018-05-03T00:54:57.262Z,0.00
2018-05-03T00:55:57.292Z,0.00
2018-05-03T00:56:57.336Z,0.00
2018-05-03T00:57:57.295Z,0.00
2018-05-03T00:58:57.342Z,0.00
2018-05-03T00:59:57.317Z,0.00
2018-05-03T01:00:57.343Z,0.00
2018-05-03T01:01:57.374Z,0.00
2018-05-03T01:02:57.386Z,0.00
2018-05-03T01:03:57.367Z,0.00
2018-05-03T01:04:57.375Z,0.00
2018-05-03T01:05:57.383Z,0.00
2018-05-03T01:06:57.430Z,0.00
2018-05-03T01:07:57.411Z,0.00
2018-05-03T01:08:57.415Z,0.00
2018-05-03T01:09:57.463Z,0.00
2018-05-03T01:10:57.481Z,0.00
2018-05-03T01:11:57.444Z,0.00
2018-05-03T01:12:57.478Z,0.00
2018-05-03T01:13:57.472Z,0.00
2018-05-03T01:14:57.513Z,0.00
2018-05-03T01:15:57.500Z,0.00
2018-05-03T01:16:57.515Z,0.00
2018-05-03T01:17:57.529Z,0.00
2018-05-03T01:18:57.524Z,0.00
2018-05-03T01:19:57.581Z,0.00
2018-05-03T01:20:57.584Z,0.00
2018-05-03T01:21:57.555Z,0.00
2018-05-03T01:22:57.565Z,0.00
2018-05-03T01:23:57.580Z,0.00
2018-05-03T01:24:57.588Z,0.00
2018-05-03T01:25:57.633Z,0.00
2018-05-03T01:26:57.622Z,0.00
2018-05-03T01:27:57.681Z,0.00
2018-05-03T01:28:57.659Z,0.00
2018-05-03T01:29:57.644Z,0.00
2018-05-03T01:30:57.661Z,0.00
2018-05-03T01:31:57.668Z,0.00
2018-05-03T01:32:57.675Z,0.00
2018-05-03T01:33:57.725Z,0.00
2018-05-03T01:34:57.695Z,0.00
2018-05-03T01:35:57.709Z,0.00
2018-05-03T01:36:57.760Z,0.00
2018-05-03T01:37:57.728Z,0.00
2018-05-03T01:38:57.771Z,0.00
2018-05-03T01:39:57.794Z,0.00
2018-05-03T01:40:57.776Z,0.00
2018-05-03T01:41:57.789Z,0.00
2018-05-03T01:42:57.797Z,0.00
2018-05-03T01:43:57.850Z,0.00
2018-05-03T01:44:57.815Z,0.00
2018-05-03T01:45:57.829Z,0.00
2018-05-03T01:46:57.824Z,0.00
2018-05-03T01:47:57.835Z,0.00
2018-05-03T01:48:57.897Z,0.00
2018-05-03T01:49:57.909Z,0.00
2018-05-03T01:50:57.885Z,0.00
2018-05-03T01:51:57.892Z,0.00
2018-05-03T01:52:57.898Z,0.00
2018-05-03T01:53:57.923Z,0.00
2018-05-03T01:54:57.962Z,0.00
2018-05-03T01:55:57.920Z,0.00
2018-05-03T01:56:57.935Z,0.00
2018-05-03T01:57:57.948Z,0.00
2018-05-03T01:58:57.964Z,0.00
2018-05-03T01:59:58.016Z,0.00
2018-05-03T02:00:57.987Z,0.00
2018-05-03T02:01:58.022Z,0.00
2018-05-03T02:02:58.014Z,0.00
2018-05-03T02:03:58.021Z,0.00
2018-05-03T02:04:58.047Z,0.00
2018-05-03T02:05:58.040Z,0.00
2018-05-03T02:06:58.083Z,0.00
2018-05-03T02:07:58.063Z,0.00
2018-05-03T02:08:58.062Z,0.00
2018-05-03T02:09:58.075Z,0.00
2018-05-03T02:10:58.084Z,0.00
2018-05-03T02:11:58.160Z,0.00
2018-05-03T02:12:58.120Z,0.00
2018-05-03T02:13:58.126Z,0.00
2018-05-03T02:14:58.138Z,0.00
2018-05-03T02:15:58.231Z,0.00
2018-05-03T02:16:58.162Z,0.00
2018-05-03T02:17:58.216Z,0.00
2018-05-03T02:18:58.181Z,0.00
2018-05-03T02:19:58.182Z,0.00
2018-05-03T02:20:58.211Z,0.00
2018-05-03T02:21:58.213Z,0.00
2018-05-03T02:22:58.276Z,0.00
2018-05-03T02:23:58.243Z,0.00
2018-05-03T02:24:58.277Z,0.00
2018-05-03T02:25:58.255Z,0.00
2018-05-03T02:26:58.280Z,0.00
2018-05-03T02:27:58.314Z,0.00
2018-05-03T02:28:58.292Z,0.00
2018-05-03T02:29:58.354Z,0.00
2018-05-03T02:30:58.298Z,0.00
2018-05-03T02:31:58.339Z,0.00
2018-05-03T02:32:58.329Z,0.00
2018-05-03T02:33:58.338Z,0.00
2018-05-03T02:34:58.340Z,0.00
2018-05-03T02:35:58.418Z,0.00
2018-05-03T02:36:58.361Z,0.00
2018-05-03T02:37:58.381Z,0.00
2018-05-03T02:38:58.433Z,0.00
2018-05-03T02:39:58.405Z,0.00
2018-05-03T02:40:58.427Z,0.00
2018-05-03T02:41:58.415Z,0.00
2018-05-03T02:42:58.468Z,0.00
2018-05-03T02:43:58.453Z,0.00
2018-05-03T02:44:58.478Z,0.00
2018-05-03T02:45:58.483Z,0.00
2018-05-03T02:46:58.482Z,0.00
2018-05-03T02:47:58.526Z,0.00
2018-05-03T02:48:58.490Z,0.00
2018-05-03T02:49:58.513Z,0.00
2018-05-03T02:50:58.515Z,0.00
2018-05-03T02:51:58.584Z,0.00
2018-05-03T02:52:58.572Z,0.00
2018-05-03T02:53:58.554Z,0.00
2018-05-03T02:54:58.564Z,0.00
2018-05-03T02:55:58.600Z,0.00
2018-05-03T02:56:58.584Z,0.00
2018-05-03T02:57:58.618Z,0.00
2018-05-03T02:58:58.609Z,0.00
2018-05-03T02:59:58.615Z,0.00
2018-05-03T03:00:58.634Z,0.00
2018-05-03T03:01:58.632Z,0.00
2018-05-03T03:02:58.692Z,0.00
2018-05-03T03:03:58.650Z,0.00
2018-05-03T03:04:58.660Z,0.00
2018-05-03T03:05:58.722Z,0.00
2018-05-03T03:06:58.708Z,0.00
2018-05-03T03:07:58.695Z,0.00
2018-05-03T03:08:58.712Z,0.00
2018-05-03T03:09:58.726Z,0.00
2018-05-03T03:10:58.787Z,0.00
2018-05-03T03:11:58.747Z,0.00
2018-05-03T03:12:58.765Z,0.00
2018-05-03T03:13:58.822Z,0.00
2018-05-03T03:14:58.765Z,0.00
2018-05-03T03:15:58.815Z,0.00
2018-05-03T03:16:58.803Z,0.00
2018-05-03T03:17:58.818Z,0.00
2018-05-03T03:18:58.856Z,0.00
2018-05-03T03:19:58.820Z,0.00
2018-05-03T03:20:58.877Z,0.00
2018-05-03T03:21:58.917Z,0.00
2018-05-03T03:22:58.862Z,0.00
2018-05-03T03:23:58.868Z,0.00
2018-05-03T03:24:58.886Z,0.00
2018-05-03T03:25:58.918Z,0.00
2018-05-03T03:26:58.903Z,0.00
2018-05-03T03:27:58.906Z,0.00
2018-05-03T03:28:58.984Z,0.00
2018-05-03T03:29:58.937Z,0.00
2018-05-03T03:30:58.937Z,0.00
2018-05-03T03:31:58.957Z,0.00
2018-05-03T03:32:58.958Z,0.00
2018-05-03T03:33:58.999Z,0.00
2018-05-03T03:34:58.979Z,0.00
2018-05-03T03:35:59.007Z,0.00
2018-05-03T03:36:59.070Z,0.00
2018-05-03T03:37:59.032Z,0.00
2018-05-03T03:38:59.027Z,0.00
2018-05-03T03:39:59.054Z,0.00
2018-05-03T03:40:59.058Z,5.63
2018-05-03T03:41:59.069Z,5.63
2018-05-03T03:42:59.110Z,5.63
2018-05-03T03:43:59.089Z,5.63
2018-05-03T03:44:59.089Z,5.63
2018-05-03T03:45:59.105Z,5.63
2018-05-03T03:46:59.139Z,5.63
2018-05-03T03:47:59.169Z,11.25
2018-05-03T03:48:59.156Z,11.25
2018-05-03T03:49:59.155Z,11.25
2018-05-03T03:50:59.182Z,11.25
2018-05-03T03:51:59.164Z,11.25
2018-05-03T03:52:59.184Z,11.25
2018-05-03T03:53:59.220Z,11.25
2018-05-03T03:54:59.222Z,11.25
2018-05-03T03:55:59.205Z,11.25
2018-05-03T03:56:59.230Z,11.25
2018-05-03T03:57:59.290Z,11.25
2018-05-03T03:58:59.256Z,11.25
2018-05-03T03:59:59.244Z,11.25
2018-05-03T04:00:59.271Z,11.25
2018-05-03T04:01:59.266Z,11.25
2018-05-03T04:02:59.300Z,16.88
2018-05-03T04:03:59.313Z,16.88
2018-05-03T04:04:59.344Z,16.88
2018-05-03T04:05:59.317Z,16.88
2018-05-03T04:06:59.327Z,16.88
2018-05-03T04:07:59.352Z,16.88
2018-05-03T04:08:59.351Z,16.88
2018-05-03T04:09:59.375Z,16.88
2018-05-03T04:10:59.406Z,16.88
2018-05-03T04:11:59.384Z,16.88
2018-05-03T04:12:59.396Z,16.88
2018-05-03T04:13:59.395Z,22.50
2018-05-03T04:14:59.500Z,22.50
2018-05-03T04:15:59.456Z,22.50
2018-05-03T04:16:59.479Z,28.13
2018-05-03T04:17:59.437Z,28.13
2018-05-03T04:18:59.451Z,28.13
2018-05-03T04:19:59.483Z,33.75
2018-05-03T04:20:59.481Z,33.75
2018-05-03T04:21:59.509Z,33.75
2018-05-03T04:22:59.527Z,33.75
2018-05-03T04:23:59.516Z,33.75
2018-05-03T04:24:59.525Z,33.75
2018-05-03T04:25:59.535Z,28.13
2018-05-03T04:26:59.544Z,28.13
2018-05-03T04:27:59.574Z,28.13
2018-05-03T04:28:59.553Z,28.13
2018-05-03T04:29:59.564Z,28.13
2018-05-03T04:30:59.610Z,28.13
2018-05-03T04:31:59.596Z,33.75
2018-05-03T04:32:59.621Z,33.75
2018-05-03T04:33:59.613Z,33.75
2018-05-03T04:34:59.630Z,33.75
2018-05-03T04:35:59.640Z,33.75
2018-05-03T04:36:59.655Z,33.75
2018-05-03T04:37:59.667Z,33.75
2018-05-03T04:38:59.667Z,39.38
2018-05-03T04:39:59.680Z,39.38
2018-05-03T04:40:59.707Z,39.38
2018-05-03T04:41:59.735Z,39.38
2018-05-03T04:42:59.712Z,39.38
2018-05-03T04:43:59.732Z,33.75
2018-05-03T04:44:59.737Z,39.38
2018-05-03T04:45:59.740Z,39.38
2018-05-03T04:46:59.820Z,45.00
2018-05-03T04:47:59.755Z,45.00
2018-05-03T04:48:59.794Z,45.00
2018-05-03T04:49:59.787Z,45.00
2018-05-03T04:50:59.792Z,45.00
2018-05-03T04:51:59.835Z,45.00
2018-05-03T04:52:59.813Z,50.63
2018-05-03T04:53:59.864Z,56.25
2018-05-03T04:54:59.855Z,56.25
2018-05-03T04:55:59.851Z,56.25
2018-05-03T04:56:59.866Z,56.25
2018-05-03T04:57:59.885Z,56.25
2018-05-03T04:58:59.924Z,56.25
2018-05-03T04:59:59.906Z,56.25
2018-05-03T05:00:59.908Z,50.63
2018-05-03T05:01:59.915Z,50.63
2018-05-03T05:02:59.919Z,50.63
2018-05-03T05:03:59.989Z,50.63
2018-05-03T05:04:59.939Z,50.63
2018-05-03T05:05:59.949Z,50.63
2018-05-03T05:06:59.981Z,56.25
2018-05-03T05:08:00.004Z,56.25
2018-05-03T05:08:59.978Z,56.25
2018-05-03T05:10:00.003Z,67.50
2018-05-03T05:11:00.014Z,67.50
2018-05-03T05:12:00.035Z,67.50
2018-05-03T05:13:00.079Z,67.50
2018-05-03T05:14:00.045Z,73.13
2018-05-03T05:15:00.056Z,78.75
2018-05-03T05:16:00.057Z,84.38
2018-05-03T05:17:00.070Z,84.38
2018-05-03T05:18:00.147Z,84.38
2018-05-03T05:19:00.099Z,84.38
2018-05-03T05:20:00.119Z,78.75
2018-05-03T05:21:00.113Z,78.75
2018-05-03T05:22:00.135Z,84.38
2018-05-03T05:23:00.163Z,95.63
2018-05-03T05:24:00.150Z,106.88
2018-05-03T05:25:00.176Z,101.25
2018-05-03T05:26:00.186Z,101.25
2018-05-03T05:27:00.194Z,95.63
2018-05-03T05:28:00.228Z,112.50
2018-05-03T05:29:00.231Z,174.38
2018-05-03T05:30:00.218Z,196.88
2018-05-03T05:31:00.243Z,185.63
2018-05-03T05:32:00.233Z,140.63
2018-05-03T05:33:00.300Z,123.75
2018-05-03T05:34:00.260Z,118.13
2018-05-03T05:35:00.284Z,151.88
2018-05-03T05:36:00.291Z,123.75
2018-05-03T05:37:00.291Z,118.13
2018-05-03T05:38:00.355Z,95.63
2018-05-03T05:39:00.337Z,112.50
2018-05-03T05:40:00.323Z,135.00
2018-05-03T05:41:00.344Z,129.38
2018-05-03T05:42:00.355Z,118.13
2018-05-03T05:43:00.397Z,123.75
2018-05-03T05:44:00.390Z,123.75
2018-05-03T05:45:00.394Z,129.38
2018-05-03T05:46:00.456Z,129.38
2018-05-03T05:47:00.427Z,135.00
2018-05-03T05:48:00.433Z,146.25
2018-05-03T05:49:00.445Z,146.25
2018-05-03T05:50:00.440Z,157.50
2018-05-03T05:51:00.535Z,157.50
2018-05-03T05:52:00.494Z,157.50
2018-05-03T05:53:00.485Z,163.13
2018-05-03T05:54:00.491Z,163.13
2018-05-03T05:55:00.518Z,163.13
2018-05-03T05:56:00.504Z,168.75
2018-05-03T05:57:00.562Z,163.13
2018-05-03T05:58:00.537Z,163.13
2018-05-03T05:59:00.543Z,185.63
2018-05-03T06:00:00.561Z,196.88
2018-05-03T06:01:00.576Z,202.50
2018-05-03T06:02:00.621Z,213.75
2018-05-03T06:03:00.585Z,225.00
2018-05-03T06:04:00.601Z,236.25
2018-05-03T06:05:00.673Z,247.50
2018-05-03T06:06:00.637Z,241.88
2018-05-03T06:07:00.633Z,219.38
2018-05-03T06:08:00.671Z,208.13
2018-05-03T06:09:00.663Z,208.13
2018-05-03T06:10:00.693Z,202.50
2018-05-03T06:11:00.685Z,202.50
2018-05-03T06:12:00.700Z,196.88
2018-05-03T06:13:00.755Z,180.00
2018-05-03T06:14:00.716Z,180.00
2018-05-03T06:15:00.733Z,191.25
2018-05-03T06:16:00.746Z,174.38
2018-05-03T06:17:00.754Z,163.13
2018-05-03T06:18:00.838Z,163.13
2018-05-03T06:19:00.793Z,174.38
2018-05-03T06:20:00.797Z,174.38
2018-05-03T06:21:00.806Z,208.13
2018-05-03T06:22:00.815Z,213.75
2018-05-03T06:23:00.844Z,180.00
2018-05-03T06:24:00.868Z,168.75
2018-05-03T06:25:00.855Z,163.13
2018-05-03T06:26:00.871Z,168.75
2018-05-03T06:27:00.868Z,174.38
2018-05-03T06:28:00.915Z,168.75
2018-05-03T06:29:00.923Z,157.50
2018-05-03T06:30:00.920Z,174.38
2018-05-03T06:31:00.931Z,219.38
2018-05-03T06:32:01.026Z,163.13
2018-05-03T06:33:01.025Z,191.25
2018-05-03T06:34:00.956Z,168.75
2018-05-03T06:35:01.002Z,157.50
2018-05-03T06:36:00.989Z,185.63
2018-05-03T06:37:01.004Z,185.63
2018-05-03T06:38:01.021Z,196.88
2018-05-03T06:39:01.086Z,202.50
2018-05-03T06:40:01.077Z,196.88
2018-05-03T06:41:01.046Z,213.75
2018-05-03T06:42:01.057Z,213.75
2018-05-03T06:43:01.130Z,213.75
2018-05-03T06:44:01.079Z,202.50
2018-05-03T06:45:01.219Z,196.88
2018-05-03T06:46:01.123Z,202.50
2018-05-03T06:47:01.119Z,202.50
2018-05-03T06:48:01.205Z,202.50
2018-05-03T06:49:01.142Z,213.75
2018-05-03T06:50:01.182Z,208.13
2018-05-03T06:51:01.163Z,208.13
2018-05-03T06:52:01.180Z,202.50
2018-05-03T06:53:01.213Z,191.25
2018-05-03T06:54:01.196Z,191.25
2018-05-03T06:55:01.202Z,196.88
2018-05-03T06:56:01.228Z,185.63
2018-05-03T06:57:01.279Z,174.38
2018-05-03T06:58:01.255Z,168.75
2018-05-03T06:59:01.267Z,146.25
2018-05-03T07:00:01.267Z,151.88
2018-05-03T07:01:01.300Z,151.88
2018-05-03T07:02:01.426Z,140.63
2018-05-03T07:03:01.353Z,140.63
2018-05-03T07:04:01.424Z,140.63
2018-05-03T07:05:01.332Z,135.00
2018-05-03T07:06:01.331Z,135.00
2018-05-03T07:07:01.365Z,135.00
2018-05-03T07:08:01.399Z,129.38
2018-05-03T07:09:01.376Z,129.38
2018-05-03T07:10:01.420Z,129.38
2018-05-03T07:11:01.390Z,129.38
2018-05-03T07:12:01.416Z,135.00
2018-05-03T07:13:01.445Z,129.38
2018-05-03T07:14:01.427Z,123.75
2018-05-03T07:15:01.476Z,118.13
2018-05-03T07:16:01.492Z,123.75
2018-05-03T07:17:01.529Z,123.75
2018-05-03T07:18:01.489Z,140.63
2018-05-03T07:19:01.512Z,151.88
2018-05-03T07:20:01.503Z,163.13
2018-05-03T07:21:01.538Z,168.75
2018-05-03T07:22:01.572Z,168.75
2018-05-03T07:23:01.530Z,168.75
2018-05-03T07:24:01.561Z,174.38
2018-05-03T07:25:01.605Z,174.38
2018-05-03T07:26:01.589Z,168.75
2018-05-03T07:27:01.584Z,163.13
2018-05-03T07:28:01.610Z,157.50
2018-05-03T07:29:01.611Z,151.88
2018-05-03T07:30:01.667Z,146.25
2018-05-03T07:31:01.653Z,146.25
2018-05-03T07:32:01.642Z,146.25
2018-05-03T07:33:01.684Z,140.63
2018-05-03T07:34:01.696Z,123.75
2018-05-03T07:35:01.681Z,135.00
2018-05-03T07:36:01.693Z,129.38
2018-05-03T07:37:01.730Z,123.75
2018-05-03T07:38:01.712Z,123.75
2018-05-03T07:39:01.736Z,123.75
2018-05-03T07:40:01.785Z,123.75
2018-05-03T07:41:01.804Z,123.75
2018-05-03T07:42:01.761Z,129.38
2018-05-03T07:43:01.768Z,129.38
2018-05-03T07:44:01.794Z,129.38
2018-05-03T07:45:01.879Z,129.38
2018-05-03T07:46:01.817Z,135.00
2018-05-03T07:47:01.856Z,135.00
2018-05-03T07:48:01.840Z,135.00
2018-05-03T07:49:01.864Z,135.00
2018-05-03T07:50:01.858Z,123.75
2018-05-03T07:51:01.875Z,118.13
2018-05-03T07:52:01.932Z,135.00
2018-05-03T07:53:01.891Z,135.00
2018-05-03T07:54:01.904Z,140.63
2018-05-03T07:55:01.921Z,140.63
2018-05-03T07:56:01.962Z,146.25
2018-05-03T07:57:01.958Z,146.25
2018-05-03T07:58:01.998Z,151.88
2018-05-03T07:59:01.969Z,146.25
2018-05-03T08:00:01.991Z,146.25
2018-05-03T08:01:02.006Z,146.25
2018-05-03T08:02:02.100Z,146.25
2018-05-03T08:03:02.178Z,146.25
2018-05-03T08:04:02.020Z,135.00
2018-05-03T08:05:02.027Z,135.00
2018-05-03T08:06:02.039Z,140.63
2018-05-03T08:07:02.073Z,146.25
2018-05-03T08:08:02.080Z,146.25
2018-05-03T08:09:02.164Z,151.88
2018-05-03T08:10:02.101Z,157.50
2018-05-03T08:11:02.121Z,157.50
2018-05-03T08:12:02.110Z,157.50
2018-05-03T08:13:02.138Z,174.38
2018-05-03T08:14:02.177Z,174.38
2018-05-03T08:15:02.161Z,174.38
2018-05-03T08:16:02.173Z,174.38
2018-05-03T08:17:02.248Z,163.13
2018-05-03T08:18:02.260Z,163.13
2018-05-03T08:19:02.223Z,168.75
2018-05-03T08:20:02.252Z,163.13
2018-05-03T08:21:02.230Z,163.13
2018-05-03T08:22:02.241Z,163.13
2018-05-03T08:23:02.249Z,157.50
2018-05-03T08:24:02.258Z,157.50
2018-05-03T08:25:02.313Z,174.38
2018-05-03T08:26:02.290Z,174.38
2018-05-03T08:27:02.289Z,180.00
2018-05-03T08:28:02.301Z,174.38
2018-05-03T08:29:02.339Z,180.00
2018-05-03T08:30:02.386Z,174.38
2018-05-03T08:31:02.370Z,180.00
2018-05-03T08:32:02.354Z,168.75
2018-05-03T08:33:02.422Z,163.13
2018-05-03T08:34:02.380Z,151.88
2018-05-03T08:35:02.397Z,140.63
2018-05-03T08:36:02.406Z,140.63
2018-05-03T08:37:02.408Z,140.63
2018-05-03T08:38:02.455Z,129.38
2018-05-03T08:39:02.441Z,118.13
2018-05-03T08:40:02.455Z,112.50
2018-05-03T08:41:02.462Z,112.50
2018-05-03T08:42:02.541Z,112.50
2018-05-03T08:43:02.481Z,106.88
2018-05-03T08:44:02.518Z,106.88
2018-05-03T08:45:02.503Z,101.25
2018-05-03T08:46:02.520Z,101.25
2018-05-03T08:47:02.580Z,95.63
2018-05-03T08:48:02.644Z,101.25
2018-05-03T08:49:02.597Z,101.25
2018-05-03T08:50:02.572Z,101.25
2018-05-03T08:51:02.576Z,101.25
2018-05-03T08:52:02.605Z,101.25
2018-05-03T08:53:02.669Z,101.25
2018-05-03T08:54:02.617Z,101.25
2018-05-03T08:55:02.645Z,101.25
2018-05-03T08:56:02.657Z,95.63
2018-05-03T08:57:02.646Z,95.63
2018-05-03T08:58:02.703Z,95.63
2018-05-03T08:59:02.695Z,95.63
2018-05-03T09:00:02.703Z,90.00
2018-05-03T09:01:02.721Z,90.00
2018-05-03T09:02:02.722Z,90.00
2018-05-03T09:03:02.782Z,90.00
2018-05-03T09:04:02.748Z,95.63
2018-05-03T09:05:02.754Z,95.63
2018-05-03T09:06:02.781Z,95.63
2018-05-03T09:07:02.768Z,90.00
2018-05-03T09:08:02.826Z,90.00
2018-05-03T09:09:02.831Z,90.00
2018-05-03T09:10:02.807Z,90.00
2018-05-03T09:11:02.842Z,90.00
2018-05-03T09:12:02.828Z,90.00
2018-05-03T09:13:02.878Z,90.00
2018-05-03T09:14:02.874Z,90.00
2018-05-03T09:15:02.887Z,90.00
2018-05-03T09:16:02.874Z,84.38
2018-05-03T09:17:02.899Z,84.38
2018-05-03T09:18:02.914Z,90.00
2018-05-03T09:19:02.970Z,90.00
2018-05-03T09:20:02.936Z,90.00
2018-05-03T09:21:02.937Z,90.00
2018-05-03T09:22:02.950Z,90.00
2018-05-03T09:23:02.956Z,90.00
2018-05-03T09:24:03.010Z,101.25
2018-05-03T09:25:02.986Z,101.25
2018-05-03T09:26:03.005Z,101.25
2018-05-03T09:27:03.023Z,101.25
2018-05-03T09:28:03.035Z,101.25
2018-05-03T09:29:03.060Z,101.25
2018-05-03T09:30:03.044Z,95.63
2018-05-03T09:31:03.062Z,95.63
2018-05-03T09:32:03.125Z,95.63
2018-05-03T09:33:03.082Z,95.63
2018-05-03T09:34:03.101Z,95.63
2018-05-03T09:35:03.122Z,95.63
2018-05-03T09:36:03.113Z,95.63
2018-05-03T09:37:03.170Z,95.63
2018-05-03T09:38:03.138Z,90.00
2018-05-03T09:39:03.227Z,90.00
2018-05-03T09:40:03.172Z,90.00
2018-05-03T09:41:03.179Z,90.00
2018-05-03T09:42:03.199Z,90.00
2018-05-03T09:43:03.251Z,90.00
2018-05-03T09:44:03.214Z,90.00
2018-05-03T09:45:03.249Z,90.00
2018-05-03T09:46:03.261Z,90.00
2018-05-03T09:47:03.251Z,90.00
2018-05-03T09:48:03.267Z,90.00
2018-05-03T09:49:03.278Z,90.00
2018-05-03T09:50:03.352Z,90.00
2018-05-03T09:51:03.303Z,90.00
2018-05-03T09:52:03.313Z,90.00
2018-05-03T09:53:03.345Z,90.00
2018-05-03T09:54:03.326Z,90.00
2018-05-03T09:55:03.381Z,90.00
2018-05-03T09:56:03.351Z,90.00
2018-05-03T09:57:03.384Z,90.00
2018-05-03T09:58:03.373Z,90.00
2018-05-03T09:59:03.389Z,95.63
2018-05-03T10:00:03.419Z,95.63
2018-05-03T10:01:03.443Z,95.63
2018-05-03T10:02:03.437Z,95.63
2018-05-03T10:03:03.448Z,101.25
2018-05-03T10:04:03.727Z,101.25
2018-05-03T10:05:03.469Z,101.25
2018-05-03T10:06:03.482Z,101.25
2018-05-03T10:07:03.504Z,101.25
2018-05-03T10:08:03.506Z,101.25
2018-05-03T10:09:03.537Z,106.88
2018-05-03T10:10:03.571Z,106.88
2018-05-03T10:11:03.548Z,106.88
2018-05-03T10:12:03.584Z,101.25
2018-05-03T10:13:03.562Z,101.25
2018-05-03T10:14:03.582Z,101.25
2018-05-03T10:15:03.612Z,101.25
2018-05-03T10:16:03.591Z,95.63
2018-05-03T10:17:03.659Z,101.25
2018-05-03T10:18:03.632Z,101.25
2018-05-03T10:19:03.647Z,101.25
2018-05-03T10:20:03.647Z,101.25
2018-05-03T10:21:03.659Z,95.63
2018-05-03T10:22:03.798Z,95.63
2018-05-03T10:23:03.725Z,95.63
2018-05-03T10:24:03.700Z,95.63
2018-05-03T10:25:03.736Z,101.25
2018-05-03T10:26:03.722Z,101.25
2018-05-03T10:27:03.780Z,95.63
2018-05-03T10:28:03.749Z,101.25
2018-05-03T10:29:03.762Z,101.25
2018-05-03T10:30:03.798Z,101.25
2018-05-03T10:31:03.775Z,101.25
2018-05-03T10:32:03.814Z,101.25
2018-05-03T10:33:03.811Z,101.25
2018-05-03T10:34:03.839Z,101.25
2018-05-03T10:35:03.883Z,101.25
2018-05-03T10:36:03.954Z,95.63
2018-05-03T10:37:03.873Z,95.63
2018-05-03T10:38:03.947Z,101.25
2018-05-03T10:39:03.889Z,101.25
2018-05-03T10:40:03.917Z,106.88
2018-05-03T10:41:04.207Z,106.88
2018-05-03T10:42:04.095Z,106.88
2018-05-03T10:43:03.933Z,106.88
2018-05-03T10:44:03.947Z,101.25
2018-05-03T10:45:03.987Z,101.25
2018-05-03T10:46:03.978Z,101.25
2018-05-03T10:47:03.986Z,101.25
2018-05-03T10:48:04.000Z,101.25
2018-05-03T10:49:04.091Z,95.63
2018-05-03T10:50:04.050Z,95.63
2018-05-03T10:51:04.050Z,106.88
2018-05-03T10:52:04.040Z,106.88
2018-05-03T10:53:04.048Z,106.88
2018-05-03T10:54:04.131Z,106.88
2018-05-03T10:55:04.102Z,106.88
2018-05-03T10:56:04.116Z,101.25
2018-05-03T10:57:04.106Z,101.25
2018-05-03T10:58:04.114Z,106.88
2018-05-03T10:59:04.182Z,95.63
2018-05-03T11:00:04.137Z,95.63
2018-05-03T11:01:04.151Z,112.50
2018-05-03T11:02:04.181Z,112.50
2018-05-03T11:03:04.277Z,118.13
2018-05-03T11:04:04.224Z,112.50
2018-05-03T11:05:04.206Z,112.50
2018-05-03T11:06:04.311Z,106.88
2018-05-03T11:07:04.224Z,106.88
2018-05-03T11:08:04.272Z,101.25
2018-05-03T11:09:04.260Z,101.25
2018-05-03T11:10:04.301Z,101.25
2018-05-03T11:11:04.411Z,101.25
2018-05-03T11:12:04.329Z,95.63
2018-05-03T11:13:04.310Z,95.63
2018-05-03T11:14:04.364Z,95.63
2018-05-03T11:15:04.331Z,95.63
2018-05-03T11:16:04.347Z,95.63
2018-05-03T11:17:04.438Z,106.88
2018-05-03T11:18:04.423Z,106.88
2018-05-03T11:19:04.435Z,106.88
2018-05-03T11:20:04.413Z,101.25
2018-05-03T11:21:04.462Z,106.88
2018-05-03T11:22:04.423Z,101.25
2018-05-03T11:23:04.471Z,101.25
2018-05-03T11:24:04.445Z,101.25
2018-05-03T11:25:04.468Z,106.88
2018-05-03T11:26:04.531Z,106.88
2018-05-03T11:27:04.476Z,106.88
2018-05-03T11:28:04.508Z,101.25
2018-05-03T11:29:04.690Z,101.25
2018-05-03T11:30:04.523Z,101.25
2018-05-03T11:31:04.660Z,101.25
2018-05-03T11:32:04.551Z,101.25
2018-05-03T11:33:04.711Z,95.63
2018-05-03T11:34:04.580Z,101.25
2018-05-03T11:35:04.761Z,106.88
2018-05-03T11:36:04.605Z,95.63
2018-05-03T11:37:04.640Z,95.63
2018-05-03T11:38:04.639Z,95.63
2018-05-03T11:39:04.683Z,95.63
2018-05-03T11:40:04.681Z,101.25
2018-05-03T11:41:04.676Z,112.50
2018-05-03T11:42:04.672Z,118.13
2018-05-03T11:43:04.688Z,118.13
2018-05-03T11:44:04.841Z,118.13
2018-05-03T11:45:04.719Z,112.50
2018-05-03T11:46:04.723Z,112.50
2018-05-03T11:47:04.752Z,112.50
2018-05-03T11:48:04.760Z,118.13
2018-05-03T11:49:04.777Z,112.50
2018-05-03T11:50:04.811Z,118.13
2018-05-03T11:51:04.790Z,129.38
2018-05-03T11:52:04.830Z,129.38
2018-05-03T11:53:04.811Z,129.38
2018-05-03T11:54:04.824Z,129.38
2018-05-03T11:55:04.884Z,135.00
2018-05-03T11:56:04.861Z,123.75
2018-05-03T11:57:04.874Z,123.75
2018-05-03T11:58:04.884Z,123.75
2018-05-03T11:59:04.983Z,123.75
2018-05-03T12:00:04.941Z,129.38
2018-05-03T12:01:04.914Z,129.38
2018-05-03T12:02:04.953Z,123.75
2018-05-03T12:03:04.970Z,112.50
2018-05-03T12:04:04.968Z,112.50
2018-05-03T12:05:04.967Z,118.13
2018-05-03T12:06:05.017Z,118.13
2018-05-03T12:07:05.058Z,112.50
2018-05-03T12:08:05.010Z,112.50
2018-05-03T12:09:05.014Z,112.50
2018-05-03T12:10:05.050Z,112.50
2018-05-03T12:11:05.043Z,129.38
2018-05-03T12:12:05.082Z,135.00
2018-05-03T12:13:05.154Z,135.00
2018-05-03T12:14:05.142Z,123.75
2018-05-03T12:15:05.099Z,129.38
2018-05-03T12:16:05.122Z,135.00
2018-05-03T12:17:05.137Z,135.00
2018-05-03T12:18:05.145Z,135.00
2018-05-03T12:19:05.171Z,135.00
2018-05-03T12:20:05.183Z,135.00
2018-05-03T12:21:05.204Z,140.63
2018-05-03T12:22:05.200Z,146.25
2018-05-03T12:23:05.200Z,146.25
2018-05-03T12:24:05.251Z,146.25
2018-05-03T12:25:05.258Z,151.88
2018-05-03T12:26:05.247Z,151.88
2018-05-03T12:27:05.272Z,151.88
2018-05-03T12:28:05.278Z,151.88
2018-05-03T12:29:05.329Z,151.88
2018-05-03T12:30:05.289Z,157.50
2018-05-03T12:31:05.358Z,146.25
2018-05-03T12:32:05.333Z,146.25
2018-05-03T12:33:05.340Z,146.25
2018-05-03T12:34:05.373Z,146.25
2018-05-03T12:35:05.352Z,151.88
2018-05-03T12:36:05.422Z,163.13
2018-05-03T12:37:05.427Z,168.75
2018-05-03T12:38:05.433Z,163.13
2018-05-03T12:39:05.420Z,163.13
2018-05-03T12:40:05.445Z,163.13
2018-05-03T12:41:05.447Z,157.50
2018-05-03T12:42:05.497Z,163.13
2018-05-03T12:43:05.471Z,151.88
2018-05-03T12:44:05.489Z,146.25
2018-05-03T12:45:05.509Z,135.00
2018-05-03T12:46:05.500Z,135.00
2018-05-03T12:47:05.567Z,135.00
2018-05-03T12:48:05.582Z,135.00
2018-05-03T12:49:05.551Z,140.63